»·PEaware :: SWA839 KABQ-KCOS

SWA839 :: KABQ-KCOS

FLIGHT INFORMATION

Flight Status: Arrived
Operator:
Southwest Airlines
More flights by this operator :: More flights under this callsign
Pilot: Anonymous 16342 (16342)
Aircraft: BOEING 737-300
(B733)
More flights by this aircraft type
Origin: KABQ Albuquerque Intl Sunport
United States
Destination: KCOS City Of Colorado Springs Mun
United States
More flights between these airports :: More routes between these airports
Route: JEMEZ3 JEMEZ BRAZO V368 ALS DBRY3
File this flight plan on PilotEdge
Remarks:
Altitude:
(Current/Filed)
31,000ft
Speed:
(Current/Filed)
424kts
Departed: 21-Sep-18 07:56 PM
Arrived: 21-Sep-18 08:53 PM
Distance/Time
Traveled:
243nm/0:57
Distance/Time
To Go:
Arrived

Flight Plot

Page will automatically refresh every two minutes.

Flight plan parsing failed; only flown route is shown


Map Options




Map Legend


Flown Route
Filed Route
Departure Airport
Arrival Airport
Navaid (VOR, NDB)
Fix

Horizontal Profiles

Position Reports

Time Latitude Longitude Heading Altitude Ground
Speed
21-Sep-18 19:31 35.046945 -106.615889 12 5319ft 0kts
21-Sep-18 19:32 35.046945 -106.615889 12 5319ft 0kts
21-Sep-18 19:33 35.046945 -106.615889 12 5319ft 0kts
21-Sep-18 19:34 35.046945 -106.615889 12 5319ft 0kts
21-Sep-18 19:35 35.046945 -106.615889 12 5319ft 0kts
21-Sep-18 19:36 35.046945 -106.615889 12 5319ft 0kts
21-Sep-18 19:37 35.046945 -106.615889 12 5319ft 0kts
21-Sep-18 19:38 35.046945 -106.615889 12 5319ft 0kts
21-Sep-18 19:39 35.046945 -106.615889 12 5319ft 0kts
21-Sep-18 19:40 35.046945 -106.615889 12 5319ft 0kts
21-Sep-18 19:41 35.046945 -106.615889 12 5319ft 0kts
21-Sep-18 19:42 35.046945 -106.615889 12 5319ft 0kts
21-Sep-18 19:43 35.046945 -106.615889 12 5319ft 0kts
21-Sep-18 19:44 35.046945 -106.615889 12 5319ft 0kts
21-Sep-18 19:45 35.046945 -106.615889 12 5319ft 0kts
21-Sep-18 19:46 35.046945 -106.615889 12 5319ft 0kts
21-Sep-18 19:47 35.046945 -106.615889 12 5319ft 0kts
21-Sep-18 19:48 35.046945 -106.615889 12 5319ft 0kts
21-Sep-18 19:49 35.046563 -106.615719 303 5319ft 2kts
21-Sep-18 19:50 35.046502 -106.615389 266 5319ft 0kts
21-Sep-18 19:51 35.046502 -106.615389 266 5319ft 0kts
21-Sep-18 19:52 35.046502 -106.615389 266 5319ft 0kts
21-Sep-18 19:53 35.046480 -106.616866 267 5319ft 14kts
21-Sep-18 19:54 35.045608 -106.620808 265 5319ft 15kts
21-Sep-18 19:55 35.045278 -106.621346 198 5319ft 0kts
21-Sep-18 19:56 35.045278 -106.621346 198 5319ft 0kts
21-Sep-18 19:57 35.044385 -106.621073 121 5319ft 13kts
21-Sep-18 19:58 35.043910 -106.591755 94 5447ft 197kts
21-Sep-18 19:59 35.047432 -106.522853 87 7832ft 223kts
21-Sep-18 20:00 35.045291 -106.462939 51 9926ft 233kts
21-Sep-18 20:01 35.095066 -106.465983 299 11257ft 270kts
21-Sep-18 20:02 35.140401 -106.546200 303 13703ft 300kts
21-Sep-18 20:03 35.188170 -106.630161 303 16541ft 306kts
21-Sep-18 20:04 35.237525 -106.715439 312 19091ft 315kts
21-Sep-18 20:05 35.314172 -106.776350 324 20379ft 356kts
21-Sep-18 20:06 35.403937 -106.844776 324 21446ft 388kts
21-Sep-18 20:07 35.510071 -106.874546 348 23459ft 413kts
21-Sep-18 20:08 35.625291 -106.891998 347 25269ft 425kts
21-Sep-18 20:09 35.744298 -106.910332 347 27060ft 435kts
21-Sep-18 20:10 35.862659 -106.928610 346 29328ft 427kts
21-Sep-18 20:11 35.976299 -106.931399 10 31321ft 437kts
21-Sep-18 20:12 36.091213 -106.892846 8 31453ft 462kts
21-Sep-18 20:13 36.210394 -106.853938 8 31492ft 463kts
21-Sep-18 20:14 36.333236 -106.813593 8 31506ft 462kts
21-Sep-18 20:15 36.455709 -106.773224 8 31504ft 461kts
21-Sep-18 20:16 36.578804 -106.732515 8 31489ft 461kts
21-Sep-18 20:17 36.701640 -106.691758 8 31474ft 461kts
21-Sep-18 20:18 36.823310 -106.648073 22 31444ft 471kts
21-Sep-18 20:19 36.906999 -106.517828 49 31466ft 490kts
21-Sep-18 20:20 36.989769 -106.387090 47 31436ft 488kts
21-Sep-18 20:21 37.073075 -106.255522 48 31422ft 486kts
21-Sep-18 20:22 37.151911 -106.130946 49 31420ft 484kts
21-Sep-18 20:23 37.233446 -106.000715 49 31423ft 485kts
21-Sep-18 20:24 37.312111 -105.875174 49 31332ft 486kts
21-Sep-18 20:25 37.397365 -105.746125 45 30330ft 466kts
21-Sep-18 20:26 37.478052 -105.630273 45 29279ft 420kts
21-Sep-18 20:27 37.550730 -105.525355 45 28228ft 380kts
21-Sep-18 20:28 37.620684 -105.424152 45 27272ft 395kts
21-Sep-18 20:29 37.691939 -105.320467 46 26267ft 395kts
21-Sep-18 20:30 37.762158 -105.217873 46 25253ft 373kts
21-Sep-18 20:31 37.829152 -105.119963 46 24254ft 366kts
21-Sep-18 20:32 37.894773 -105.023734 47 23264ft 360kts
21-Sep-18 20:33 37.959636 -104.928338 48 22268ft 355kts
21-Sep-18 20:34 38.022714 -104.834072 48 21276ft 349kts
21-Sep-18 20:35 38.085121 -104.741472 48 20282ft 342kts
21-Sep-18 20:36 38.151478 -104.659797 21 19249ft 332kts
21-Sep-18 20:37 38.238708 -104.648660 356 18229ft 305kts
21-Sep-18 20:38 38.319434 -104.647361 356 17190ft 280kts
21-Sep-18 20:39 38.397054 -104.645760 357 16201ft 278kts
21-Sep-18 20:40 38.473844 -104.644114 357 16017ft 293kts
21-Sep-18 20:41 38.555235 -104.642254 357 16072ft 295kts
21-Sep-18 20:42 38.636874 -104.636152 2 15427ft 286kts
21-Sep-18 20:43 38.712017 -104.627048 2 14448ft 278kts
21-Sep-18 20:44 38.787563 -104.618333 2 13460ft 272kts
21-Sep-18 20:45 38.862337 -104.610098 2 12464ft 267kts
21-Sep-18 20:46 38.934417 -104.602775 2 11485ft 263kts
21-Sep-18 20:47 39.003981 -104.596937 2 10524ft 258kts
21-Sep-18 20:48 39.055508 -104.636668 264 9481ft 242kts
21-Sep-18 20:49 39.013714 -104.685815 185 9152ft 214kts
21-Sep-18 20:50 38.956696 -104.685806 179 8888ft 204kts
21-Sep-18 20:51 38.902410 -104.685603 180 7816ft 175kts
21-Sep-18 20:52 38.860368 -104.685698 180 7014ft 146kts
21-Sep-18 20:53 38.821383 -104.685755 179 6201ft 132kts
21-Sep-18 20:54 38.795466 -104.685797 181 6103ft 44kts
21-Sep-18 20:55 38.790456 -104.687045 211 6103ft 2kts
21-Sep-18 20:56 38.792055 -104.687660 0 6103ft 16kts
21-Sep-18 20:57 38.797090 -104.687657 3 6103ft 17kts
21-Sep-18 20:58 38.802739 -104.687619 355 6103ft 14kts
21-Sep-18 20:59 38.803123 -104.692584 269 6103ft 15kts
21-Sep-18 21:00 38.801923 -104.697247 180 6103ft 16kts
21-Sep-18 21:01 38.800003 -104.698585 229 6103ft 9kts
21-Sep-18 21:02 38.797759 -104.698673 126 6103ft 7kts

Navigation Log

Ident Type
Flight plan parsing failed, navigation log unavailable